• Join FlightAware (Why Join?)
  • Login
  • US Flag 
01:55PM EDT


 

Airport Tracker/Info


-or-


 

Live Flight TrackerFlight Track Log ✈ SWA2139 ✈ 28-Sep-2013 ✈ KLAS - KBUR

Flight Track Log - Related Links

Times and Time Zones

All times are in EDT time to prevent confusion due to time zone crossing. See the SWA2139 flight status page for this flight to view local times or setup timezone preferences in your user account.

Time Position Orientation Groundspeed Altitude Reporting Facility
EDT Latitude Longitude Course Direction KTS MPH feet Rate Location/Type
09:15PM 36.0750 -115.1633 271° West 161 185 3,400  Level Los Angeles Center
09:15PM 36.0756 -115.1950 271° West 176 203 4,100 1,920 Climbing Los Angeles Center
09:16PM 36.0756 -115.2297 270° West 193 222 5,700 2,700 Climbing Los Angeles Center
09:16PM 36.0592 -115.2589 235° Southwest 238 274 6,600 2,220 Climbing Los Angeles Center
09:17PM 36.0186 -115.2778 201° Southwest 252 290 8,000 3,180 Climbing Los Angeles Center
09:17PM 35.9778 -115.2828 186° South 285 328 10,200 3,240 Climbing Los Angeles Center
09:18PM 35.9361 -115.2847 182° South 281 323 11,400 3,000 Climbing Los Angeles Center
09:18PM 35.8969 -115.2881 184° South 330 380 12,900 4,500 Climbing Los Angeles Center
09:19PM 35.8217 -115.2883 180° South 325 374 16,000 3,480 Climbing Los Angeles Center
09:20PM 35.7200 -115.2925 182° South 354 407 19,300 2,880 Climbing Los Angeles Center
09:21PM 35.6342 -115.3528 210° Southwest 366 421 22,000 1,260 Climbing Los Angeles Center
09:22PM 35.5619 -115.4494 227° Southwest 376 433 22,000  Level Los Angeles Center
09:23PM 35.4911 -115.5472 228° Southwest 381 438 22,000  Level Los Angeles Center
09:24PM 35.4158 -115.6475 227° Southwest 388 447 22,000  Level Los Angeles Center
09:25PM 35.3431 -115.7431 227° Southwest 385 443 22,000  Level Los Angeles Center
09:26PM 35.2847 -115.8217 228° Southwest 386 444 22,000  Level Los Angeles Center
09:27PM 35.1975 -115.9367 227° Southwest 385 443 22,000  Level Los Angeles Center
09:28PM 35.1253 -116.0333 228° Southwest 385 443 22,000  Level Los Angeles Center
09:29PM 35.0381 -116.1469 227° Southwest 382 440 22,000  Level Los Angeles Center
09:30PM 34.9672 -116.2406 227° Southwest 380 437 22,000  Level Los Angeles Center
09:31PM 34.9264 -116.3794 250° West 366 421 22,000  Level Los Angeles Center
09:32PM 34.9053 -116.4975 258° West 362 417 22,000  Level Los Angeles Center
09:33PM 34.8833 -116.6158 257° West 358 412 22,000  Level Los Angeles Center
09:34PM 34.8622 -116.7361 258° West 361 415 22,000  Level Los Angeles Center
09:35PM 34.8400 -116.8561 257° West 363 418 22,000  Level Los Angeles Center
09:36PM 34.8189 -116.9750 258° West 360 414 22,000  Level Los Angeles Center
09:37PM 34.7967 -117.0956 257° West 362 417 22,000  Level Los Angeles Center
09:38PM 34.7739 -117.2158 257° West 364 419 22,000  Level Los Angeles Center
09:39PM 34.7519 -117.3361 258° West 363 418 22,000 -300 Level Los Angeles Center
09:40PM 34.7300 -117.4575 258° West 365 420 21,500 -1,320 Descending Los Angeles Center
09:41PM 34.7064 -117.5753 256° West 358 412 19,400 -2,220 Descending Los Angeles Center
09:42PM 34.6808 -117.7147 257° West 353 406 17,000 -2,100 Descending Los Angeles Center
09:44PM 34.6611 -117.8300 258° West 351 404 15,100 -1,860 Descending Los Angeles Center
09:45PM 34.6408 -117.9439 258° West 344 396 13,300 -1,920 Descending Los Angeles Center
09:46PM 34.6222 -118.0511 258° West 328 377 11,200 -1,680 Descending Los Angeles Center
09:47PM 34.6025 -118.1644 258° West 313 360 9,900 -1,320 Descending Los Angeles Center
09:48PM 34.5850 -118.2575 257° West 290 334 8,500 -900 Descending Los Angeles Center
09:49PM 34.5669 -118.3519 257° West 289 333 8,100 -540 Descending Los Angeles Center
09:50PM 34.5194 -118.4256 232° Southwest 291 335 7,400 -540 Descending Los Angeles Center
09:51PM 34.4631 -118.4911 224° Southwest 283 326 7,000 -480 Descending Los Angeles Center
09:52PM 34.4061 -118.5569 224° Southwest 282 325 6,500 -780 Descending Los Angeles Center
09:53PM 34.3500 -118.6167 221° Southwest 273 314 5,600 -780 Descending Southern California TRACON
09:54PM 34.2833 -118.6333 192° South 247 284 5,100 -780 Descending Southern California TRACON
09:55PM 34.2167 -118.6167 168° South 228 262 4,100 -960 Descending Southern California TRACON
09:56PM 34.2000 -118.5500 107° East 209 241 3,200 -600 Descending Southern California TRACON
09:57PM 34.2000 -118.4833 90° East 179 206 2,900 -660 Descending Southern California TRACON
09:58PM 34.2000 -118.4333 90° East 145 167 1,900 -900 Descending Southern California TRACON
09:59PM 34.2000 -118.3833 90° East 144 166 1,200 -720 Descending Southern California TRACON
10:01PM 34.2000 -118.3500 90° East  Level FlightAware Approximate
10:08PM 34.2007 -118.3587 90° East  Level Estimated